Time;durP1;ratioP1;P1;durP2;ratioP2;P2;SDS_P1;SDS_P2;PMS_P1;PMS_P2;Temp;Humidity;BMP_temperature;BMP_pressure;BME280_temperature;BME280_humidity;BME280_pressure;Samples;Min_cycle;Max_cycle;Signal;HPM_P1;HPM_P2
2024/01/06 00:00:10;;;;;;;8.53;7.70;;;;;;;8.22;100.00;94647.22;5002893;28;20198;-87
2024/01/06 00:02:37;;;;;;;8.37;7.47;;;;;;;8.25;100.00;94639.16;5007620;28;20257;-87
2024/01/06 00:05:08;;;;;;;8.80;7.90;;;;;;;8.29;100.00;94636.97;5013753;28;20226;-87
2024/01/06 00:07:43;;;;;;;8.73;7.83;;;;;;;8.30;100.00;94636.81;5011408;28;20203;-87
2024/01/06 00:10:19;;;;;;;7.93;7.20;;;;;;;8.31;100.00;94619.66;4996741;28;20199;-87
2024/01/06 00:12:54;;;;;;;8.43;7.63;;;;;;;8.28;100.00;94615.69;4992339;28;20231;-87
2024/01/06 00:15:31;;;;;;;8.13;7.33;;;;;;;8.31;100.00;94610.19;4997575;28;20187;-87
2024/01/06 00:18:05;;;;;;;8.03;7.23;;;;;;;8.24;100.00;94609.34;5005459;28;20195;-87
2024/01/06 00:20:43;;;;;;;8.33;7.53;;;;;;;8.24;100.00;94613.69;5009321;28;20286;-87
2024/01/06 00:23:18;;;;;;;8.03;7.23;;;;;;;8.23;100.00;94614.66;5011258;28;20713;-86
2024/01/06 00:25:45;;;;;;;9.37;7.73;;;;;;;8.25;100.00;94610.16;5011069;28;20222;-86
2024/01/06 00:28:12;;;;;;;9.70;7.83;;;;;;;8.26;100.00;94611.75;5010842;28;20277;-87
2024/01/06 00:30:38;;;;;;;9.10;8.20;;;;;;;8.27;100.00;94606.41;4994699;28;20693;-87
2024/01/06 00:33:05;;;;;;;8.07;7.17;;;;;;;8.27;100.00;94608.19;5009858;28;20256;-87
2024/01/06 00:35:36;;;;;;;8.60;7.70;;;;;;;8.30;100.00;94607.81;5009952;28;20225;-86
2024/01/06 00:38:07;;;;;;;9.10;8.10;;;;;;;8.26;100.00;94609.19;5010975;28;20199;-87
2024/01/06 00:40:49;;;;;;;9.30;8.40;;;;;;;8.26;100.00;94611.75;4994172;28;20278;-86
2024/01/06 00:43:21;;;;;;;10.23;8.83;;;;;;;8.12;100.00;94615.94;5010730;28;20237;-87
2024/01/06 00:45:57;;;;;;;8.97;8.07;;;;;;;8.06;100.00;94637.22;5010334;28;20226;-86
2024/01/06 00:48:29;;;;;;;9.13;8.23;;;;;;;8.09;100.00;94633.47;5010711;28;20241;-86
2024/01/06 00:51:04;;;;;;;9.40;8.50;;;;;;;8.14;100.00;94623.47;5002105;28;20203;-87
2024/01/06 00:53:37;;;;;;;9.77;8.77;;;;;;;8.16;100.00;94627.44;5010162;28;20284;-87
2024/01/06 00:56:09;;;;;;;9.53;8.53;;;;;;;8.18;100.00;94632.38;5010356;28;20249;-86
2024/01/06 00:58:46;;;;;;;9.40;8.30;;;;;;;8.21;100.00;94612.28;4991467;28;20203;-86
2024/01/06 01:01:29;;;;;;;9.93;8.93;;;;;;;8.21;100.00;94609.72;4990551;28;20199;-87
2024/01/06 01:03:58;;;;;;;9.83;8.83;;;;;;;8.25;100.00;94610.16;4990312;28;20226;-86
2024/01/06 01:06:40;;;;;;;11.60;10.40;;;;;;;8.25;100.00;94607.59;5004877;28;20596;-87
2024/01/06 01:09:08;;;;;;;22.80;10.33;;;;;;;8.28;100.00;94614.88;5000389;28;20207;-87
2024/01/06 01:11:41;;;;;;;12.00;10.80;;;;;;;8.21;100.00;94622.53;5002705;28;20568;-87
2024/01/06 01:14:11;;;;;;;12.00;10.57;;;;;;;8.24;100.00;94623.94;5009790;28;20314;-87
2024/01/06 01:16:41;;;;;;;12.40;11.10;;;;;;;8.26;100.00;94617.66;5010144;28;20207;-87
2024/01/06 01:19:10;;;;;;;12.23;10.93;;;;;;;8.27;100.00;94615.88;5005655;28;20237;-86
2024/01/06 01:21:43;;;;;;;12.27;10.77;;;;;;;8.30;100.00;94607.81;4996151;28;20226;-87
2024/01/06 01:24:10;;;;;;;12.37;10.80;;;;;;;8.30;100.00;94611.16;5009474;28;20231;-86
2024/01/06 01:26:36;;;;;;;13.93;10.67;;;;;;;8.30;100.00;94608.59;5009448;28;20229;-86
2024/01/06 01:29:09;;;;;;;11.70;10.50;;;;;;;8.28;100.00;94604.63;5006044;28;20717;-87
2024/01/06 01:31:44;;;;;;;10.80;9.80;;;;;;;8.28;100.00;94609.75;4998986;28;20195;-86
2024/01/06 01:34:20;;;;;;;9.60;8.60;;;;;;;8.17;100.00;94610.28;5009586;28;20218;-86
2024/01/06 01:37:02;;;;;;;8.57;7.77;;;;;;;8.13;100.00;94609.06;5009082;28;20205;-87
2024/01/06 01:39:32;;;;;;;9.57;8.00;;;;;;;8.16;100.00;94618.94;4964565;28;20202;-87
2024/01/06 01:42:06;;;;;;;8.33;7.53;;;;;;;8.16;100.00;94616.38;4966337;28;20243;-87
2024/01/06 01:44:39;;;;;;;8.20;7.37;;;;;;;8.18;100.00;94619.56;5010371;28;20209;-87
2024/01/06 01:47:18;;;;;;;8.27;7.17;;;;;;;8.17;100.00;94621.31;4998266;28;20195;-87
2024/01/06 01:49:47;;;;;;;8.47;7.30;;;;;;;8.16;100.00;94629.19;4998028;28;20780;-87
2024/01/06 01:52:26;;;;;;;8.40;6.70;;;;;;;8.17;100.00;94625.66;4994753;28;20576;-88
2024/01/06 01:55:08;;;;;;;8.37;7.47;;;;;;;8.14;100.00;94631.16;5004249;28;20290;-87
2024/01/06 01:57:46;;;;;;;8.10;7.30;;;;;;;8.17;100.00;94630.78;5006782;28;20214;-87
2024/01/06 02:00:16;;;;;;;8.60;7.80;;;;;;;8.20;100.00;94627.84;4997058;28;20187;-87
2024/01/06 02:02:45;;;;;;;7.93;7.13;;;;;;;8.21;100.00;94619.19;5007955;28;20215;-87
2024/01/06 02:05:29;;;;;;;8.57;7.53;;;;;;;8.22;100.00;94623.34;5003217;28;20224;-87
2024/01/06 02:08:00;;;;;;;8.57;7.70;;;;;;;8.23;100.00;94615.47;5001597;28;20199;-87
2024/01/06 02:10:27;;;;;;;9.53;7.83;;;;;;;8.21;100.00;94607.16;5004173;28;20657;-87
2024/01/06 02:13:12;;;;;;;9.07;8.17;;;;;;;8.20;100.00;94607.34;5003907;28;20222;-86
2024/01/06 02:15:50;;;;;;;10.10;8.63;;;;;;;8.17;100.00;94615.41;5008934;28;20210;-87
2024/01/06 02:18:23;;;;;;;11.33;9.63;;;;;;;8.14;100.00;94608.06;5015067;28;20195;-86
2024/01/06 02:20:56;;;;;;;11.23;9.57;;;;;;;8.14;100.00;94606.31;5013535;28;20202;-87
2024/01/06 02:23:24;;;;;;;11.93;9.90;;;;;;;8.14;100.00;94621.69;5004238;28;20748;-86
2024/01/06 02:25:50;;;;;;;11.20;10.03;;;;;;;8.15;100.00;94617.34;5005659;28;20230;-87
2024/01/06 02:28:17;;;;;;;10.97;9.87;;;;;;;8.15;100.00;94610.47;5022801;28;20865;-87
2024/01/06 02:30:52;;;;;;;11.30;9.77;;;;;;;8.16;100.00;94622.28;5017855;28;20226;-86
2024/01/06 02:33:24;;;;;;;11.07;9.97;;;;;;;8.15;100.00;94610.47;5004473;28;20258;-87
2024/01/06 02:35:51;;;;;;;11.10;9.90;;;;;;;8.15;100.00;94610.47;5003496;28;20187;-88
2024/01/06 02:38:34;;;;;;;10.77;9.67;;;;;;;8.14;100.00;94606.31;5000630;28;20663;-86
2024/01/06 02:41:05;;;;;;;11.37;10.17;;;;;;;8.15;100.00;94609.66;4995076;28;20199;-87
2024/01/06 02:43:40;;;;;;;11.30;10.00;;;;;;;8.14;100.00;94615.75;5004470;28;20333;-86
2024/01/06 02:46:13;;;;;;;10.23;9.13;;;;;;;8.12;100.00;94618.50;5009742;28;20274;-87
2024/01/06 02:48:49;;;;;;;9.87;8.37;;;;;;;8.13;100.00;94609.06;5010357;28;20198;-86
2024/01/06 02:51:23;;;;;;;8.83;7.93;;;;;;;8.12;100.00;94617.72;5001217;28;20708;-87
2024/01/06 02:54:00;;;;;;;8.17;7.30;;;;;;;8.09;100.00;94616.31;5009742;28;20225;-86
2024/01/06 02:56:35;;;;;;;8.73;7.37;;;;;;;8.12;100.00;94625.41;4994417;28;20210;-87
2024/01/06 02:59:11;;;;;;;8.73;7.83;;;;;;;8.10;100.00;94623.03;5000862;28;20259;-87
2024/01/06 03:01:45;;;;;;;7.70;6.93;;;;;;;8.06;100.00;94621.03;5002116;28;20301;-87
2024/01/06 03:04:15;;;;;;;7.47;6.53;;;;;;;8.01;100.00;94619.03;5001166;28;20222;-86
2024/01/06 03:06:52;;;;;;;7.17;6.47;;;;;;;7.98;100.00;94624.50;5008527;28;20226;-86
2024/01/06 03:09:23;;;;;;;7.47;6.57;;;;;;;7.97;100.00;94633.19;5009125;28;20218;-86
2024/01/06 03:12:10;;;;;;;6.80;6.20;;;;;;;7.98;100.00;94627.06;4999864;28;20203;-86
2024/01/06 03:14:39;;;;;;;6.30;5.70;;;;;;;7.97;100.00;94631.41;5007059;28;20194;-87
2024/01/06 03:17:10;;;;;;;6.57;5.97;;;;;;;7.97;100.00;94631.41;5000275;28;20565;-87
2024/01/06 03:19:39;;;;;;;6.17;5.57;;;;;;;7.98;100.00;94635.56;5008135;28;20620;-86
2024/01/06 03:22:09;;;;;;;6.70;6.00;;;;;;;8.01;100.00;94633.59;5002558;28;20207;-86
2024/01/06 03:24:44;;;;;;;6.13;5.60;;;;;;;8.00;100.00;94637.94;5008514;28;20207;-87
2024/01/06 03:27:20;;;;;;;6.50;5.90;;;;;;;8.03;100.00;94641.91;5009261;28;20203;-87
2024/01/06 03:29:55;;;;;;;6.73;6.07;;;;;;;8.01;100.00;94641.31;5006622;28;20203;-86
2024/01/06 03:32:28;;;;;;;7.07;6.07;;;;;;;8.03;100.00;94650.41;5008194;28;20627;-86
2024/01/06 03:35:05;;;;;;;6.03;5.53;;;;;;;8.02;100.00;94642.88;5007787;28;20251;-86
2024/01/06 03:37:36;;;;;;;6.20;5.60;;;;;;;8.03;100.00;94641.91;5008002;28;20194;-87
2024/01/06 03:40:13;;;;;;;6.40;5.80;;;;;;;8.03;100.00;94632.44;4999079;28;20227;-87
2024/01/06 03:42:57;;;;;;;6.07;5.50;;;;;;;8.00;100.00;94635.38;5008371;28;20734;-87
2024/01/06 03:45:24;;;;;;;6.03;5.43;;;;;;;7.99;100.00;94641.47;4997772;28;20206;-86
2024/01/06 03:48:00;;;;;;;5.97;5.37;;;;;;;7.98;100.00;94627.88;5002861;28;20199;-87
2024/01/06 03:50:45;;;;;;;5.87;5.27;;;;;;;7.99;100.00;94631.22;5001928;28;20282;-86
2024/01/06 03:53:11;;;;;;;6.40;5.80;;;;;;;7.99;100.00;94633.78;4988450;28;20227;-87
2024/01/06 03:58:41;;;;;;;5.77;5.20;;;;;;;7.95;100.00;94648.72;4996131;28;20588;-87
2024/01/06 04:01:14;;;;;;;5.53;4.93;;;;;;;7.93;100.00;94647.31;4999581;28;20195;-86
2024/01/06 04:03:45;;;;;;;5.70;5.20;;;;;;;7.88;100.00;94653.03;5004675;28;20230;-87
2024/01/06 04:06:20;;;;;;;5.70;5.10;;;;;;;7.87;100.00;94656.56;5011729;28;20231;-86
2024/01/06 04:08:57;;;;;;;5.07;4.67;;;;;;;7.86;100.00;94664.44;5000653;28;20677;-87
2024/01/06 04:14:30;;;;;;;5.00;4.50;;;;;;;7.77;100.00;94668.84;5009779;28;20235;-86
2024/01/06 04:17:05;;;;;;;4.10;3.70;;;;;;;7.69;100.00;94678.44;5011566;28;20257;-86
2024/01/06 04:19:34;;;;;;;4.53;4.13;;;;;;;7.70;100.00;94680.78;5005179;28;20241;-86
2024/01/06 04:22:06;;;;;;;4.43;4.03;;;;;;;7.66;100.00;94686.47;5009880;28;20268;-87
2024/01/06 04:24:36;;;;;;;3.90;3.60;;;;;;;7.56;100.00;94676.50;5010846;28;20187;-87
2024/01/06 04:27:09;;;;;;;3.43;3.13;;;;;;;7.58;100.00;94679.69;5011333;28;20338;-86
2024/01/06 04:29:36;;;;;;;3.43;3.13;;;;;;;7.53;100.00;94680.22;5006635;28;20195;-86
2024/01/06 04:32:03;;;;;;;3.40;3.10;;;;;;;7.59;100.00;94676.94;4992678;28;20192;-86
2024/01/06 04:34:35;;;;;;;2.33;2.13;;;;;;;7.63;100.00;94662.81;4991862;28;20606;-87
2024/01/06 04:37:11;;;;;;;2.20;2.00;;;;;;;7.65;100.00;94659.28;4996480;28;20203;-87
2024/01/06 04:39:46;;;;;;;2.20;2.00;;;;;;;7.66;100.00;94648.06;5011851;28;20206;-86
2024/01/06 04:42:23;;;;;;;2.10;1.63;;;;;;;7.62;100.00;94645.06;5011230;28;20206;-86
2024/01/06 04:44:51;;;;;;;1.80;1.70;;;;;;;7.55;100.00;94649.31;5010417;28;20209;-86
2024/01/06 04:47:30;;;;;;;1.73;1.63;;;;;;;7.57;100.00;94650.72;5010934;28;20218;-87
2024/01/06 04:50:05;;;;;;;1.77;1.67;;;;;;;7.59;100.00;94653.09;5007694;28;20273;-86
2024/01/06 04:52:38;;;;;;;1.50;1.40;;;;;;;7.59;100.00;94633.41;5006559;28;20222;-87
2024/01/06 04:55:13;;;;;;;1.47;1.37;;;;;;;7.59;99.51;94619.81;4997510;28;20207;-86
2024/01/06 04:57:48;;;;;;;1.83;1.10;;;;;;;7.47;99.35;94618.69;4995269;28;20207;-87
2024/01/06 05:00:23;;;;;;;1.30;1.00;;;;;;;7.46;100.00;94630.72;4990445;28;20191;-87
2024/01/06 05:02:52;;;;;;;1.20;1.10;;;;;;;7.45;100.00;94641.13;4995345;28;20301;-86
2024/01/06 05:05:30;;;;;;;1.10;1.00;;;;;;;7.48;99.66;94633.88;5001871;28;20646;-87
2024/01/06 05:08:06;;;;;;;;;;;;;;;;;;;;;
2024/01/06 05:10:42;;;;;;;0.90;0.90;;;;;;;7.40;98.19;94613.50;5004948;28;20613;-87
2024/01/06 05:13:16;;;;;;;2.03;1.00;;;;;;;7.36;99.67;94626.84;4991046;28;20226;-87
2024/01/06 05:15:50;;;;;;;1.10;0.80;;;;;;;7.36;99.17;94632.75;4990743;28;20187;-87
2024/01/06 05:18:28;;;;;;;0.70;0.70;;;;;;;7.40;98.59;94631.44;4990494;28;20207;-87
2024/01/06 05:21:06;;;;;;;0.80;0.80;;;;;;;7.42;98.34;94634.59;4990531;28;20214;-86
2024/01/06 05:23:39;;;;;;;0.60;0.60;;;;;;;7.44;97.30;94619.06;4996793;28;20249;-87
2024/01/06 05:26:28;;;;;;;0.83;0.80;;;;;;;7.42;96.56;94610.75;5008770;28;20203;-87
2024/01/06 05:28:57;;;;;;;1.27;0.83;;;;;;;7.34;95.21;94582.69;5010513;28;20261;-86
2024/01/06 05:31:26;;;;;;;0.80;0.80;;;;;;;7.14;95.89;94597.84;4999056;28;20204;-87
2024/01/06 05:34:14;;;;;;;0.70;0.70;;;;;;;7.15;97.92;94632.69;4990130;28;20223;-87
2024/01/06 05:36:41;;;;;;;0.70;0.70;;;;;;;7.13;99.15;94647.44;5008389;28;20254;-87
2024/01/06 05:39:13;;;;;;;0.90;0.90;;;;;;;7.12;98.51;94649.19;5008170;28;20203;-87
2024/01/06 05:41:49;;;;;;;1.03;0.90;;;;;;;7.15;98.04;94653.97;5008714;28;20206;-87
2024/01/06 05:44:24;;;;;;;0.80;0.80;;;;;;;7.18;99.32;94675.84;5010050;28;20214;-87
2024/01/06 05:47:16;;;;;;;1.10;1.00;;;;;;;7.20;98.66;94684.16;4989913;28;20233;-87
2024/01/06 05:49:59;;;;;;;0.80;0.80;;;;;;;7.11;99.11;94682.69;4996966;28;20238;-87
2024/01/06 05:52:31;;;;;;;1.47;1.00;;;;;;;7.13;99.60;94689.19;4998024;28;20219;-87
2024/01/06 05:55:32;;;;;;;1.50;1.40;;;;;;;7.08;99.71;94699.19;4991428;28;20278;-86
2024/01/06 05:58:16;;;;;;;1.40;1.30;;;;;;;7.00;99.59;94696.69;4993446;28;20269;-87
2024/01/06 06:00:53;;;;;;;2.13;1.20;;;;;;;6.96;98.89;94690.34;5007886;28;20199;-86
2024/01/06 06:03:33;;;;;;;1.73;1.30;;;;;;;6.89;99.23;94704.81;5013142;28;20226;-87
2024/01/06 06:06:09;;;;;;;1.37;1.23;;;;;;;6.90;98.19;94706.41;4995934;28;20206;-86
2024/01/06 06:08:42;;;;;;;1.40;1.30;;;;;;;6.80;98.06;94691.28;4990277;28;20616;-86
2024/01/06 06:11:31;;;;;;;2.03;1.20;;;;;;;6.86;100.00;94740.97;4991969;28;20250;-86
2024/01/06 06:14:09;;;;;;;1.30;1.20;;;;;;;6.92;100.00;94737.72;4999410;28;20322;-87
2024/01/06 06:16:47;;;;;;;;;;;;;;;;;;;;;
2024/01/06 06:19:37;;;;;;;1.60;1.50;;;;;;;6.89;99.92;94723.53;4990955;28;20194;-88
2024/01/06 06:22:18;;;;;;;2.60;1.50;;;;;;;6.81;99.28;94720.22;4999237;28;20199;-87
2024/01/06 06:24:44;;;;;;;2.07;1.87;;;;;;;6.73;99.26;94725.44;4998476;28;20199;-88
2024/01/06 06:27:16;;;;;;;1.70;1.60;;;;;;;6.67;100.00;94739.72;4995659;28;20230;-88
2024/01/06 06:29:48;;;;;;;1.70;1.60;;;;;;;6.68;99.72;94733.63;5007632;28;20649;-90
2024/01/06 06:32:31;;;;;;;1.93;1.70;;;;;;;6.70;99.71;94744.47;5008887;28;20202;-88
2024/01/06 06:34:57;;;;;;;1.70;1.60;;;;;;;6.70;100.00;94751.34;5005347;28;20229;-88
2024/01/06 06:37:24;;;;;;;1.80;1.67;;;;;;;6.64;100.00;94757.94;5008901;28;20233;-88
2024/01/06 06:39:50;;;;;;;1.97;1.73;;;;;;;6.61;100.00;94767.72;5012508;28;20210;-87
2024/01/06 06:42:17;;;;;;;2.37;2.00;;;;;;;6.63;100.00;94779.38;4999590;28;20209;-88
2024/01/06 06:44:43;;;;;;;2.23;1.80;;;;;;;6.65;100.00;94780.00;5001715;28;20210;-88
2024/01/06 06:47:24;;;;;;;2.70;1.67;;;;;;;6.72;100.00;94785.25;4996699;28;20223;-88
2024/01/06 06:49:54;;;;;;;1.80;1.70;;;;;;;6.72;100.00;94772.44;4992278;28;20202;-87
2024/01/06 06:52:21;;;;;;;2.90;1.73;;;;;;;6.68;99.99;94763.53;4996192;28;20243;-87
2024/01/06 06:54:48;;;;;;;1.97;1.60;;;;;;;6.68;100.00;94771.19;5004966;28;20210;-87
2024/01/06 06:57:23;;;;;;;2.23;1.50;;;;;;;6.68;100.00;94769.44;4991892;28;20221;-88
2024/01/06 06:59:50;;;;;;;2.30;1.77;;;;;;;6.46;100.00;94788.94;4995872;28;20199;-88
2024/01/06 07:02:16;;;;;;;2.63;2.00;;;;;;;6.51;100.00;94804.56;4988793;28;20211;-88
2024/01/06 07:04:43;;;;;;;2.67;1.77;;;;;;;6.56;100.00;94814.25;4988017;28;20235;-87
2024/01/06 07:07:11;;;;;;;4.10;2.20;;;;;;;6.63;100.00;94794.72;4997898;28;20569;-88
2024/01/06 07:09:50;;;;;;;2.27;1.93;;;;;;;6.67;100.00;94790.06;4998623;28;20203;-87
2024/01/06 07:15:07;;;;;;;2.17;1.93;;;;;;;6.72;100.00;94795.47;5004146;28;20215;-87
2024/01/06 07:17:34;;;;;;;2.37;2.17;;;;;;;6.73;100.00;94789.38;5007947;28;20277;-87
2024/01/06 07:20:00;;;;;;;2.10;1.80;;;;;;;6.81;100.00;94792.66;5006316;28;20213;-88
2024/01/06 07:22:28;;;;;;;2.63;2.23;;;;;;;6.83;99.53;94775.38;5006957;28;20228;-88
2024/01/06 07:24:56;;;;;;;3.37;2.13;;;;;;;6.85;98.94;94776.00;4988778;28;20195;-88
2024/01/06 07:27:28;;;;;;;3.63;2.53;;;;;;;6.87;98.57;94771.50;4996756;28;20337;-87
2024/01/06 07:29:55;;;;;;;1.97;1.87;;;;;;;6.89;97.74;94764.47;5004477;28;20278;-87
2024/01/06 07:32:22;;;;;;;3.13;2.13;;;;;;;6.92;96.93;94758.19;4991921;28;20253;-87
2024/01/06 07:34:48;;;;;;;2.20;1.83;;;;;;;6.92;96.55;94751.31;5007637;28;20207;-87
2024/01/06 07:37:15;;;;;;;2.00;1.90;;;;;;;6.90;96.58;94748.13;5011847;28;20205;-87
2024/01/06 07:39:55;;;;;;;3.17;2.23;;;;;;;6.95;96.17;94752.72;5009770;28;20233;-87
2024/01/06 07:42:21;;;;;;;2.80;2.33;;;;;;;6.95;95.73;94750.16;4997599;28;20203;-87
2024/01/06 07:44:48;;;;;;;3.70;2.27;;;;;;;6.92;95.92;94750.53;5001020;28;20695;-87
2024/01/06 07:47:15;;;;;;;3.80;2.40;;;;;;;6.91;96.90;94769.41;5011498;28;20223;-88
2024/01/06 07:49:41;;;;;;;3.73;2.60;;;;;;;6.98;97.49;94787.41;5009584;28;20207;-87
2024/01/06 07:52:22;;;;;;;3.53;2.73;;;;;;;7.02;97.09;94786.09;5010350;28;20668;-88
2024/01/06 07:54:48;;;;;;;3.87;2.23;;;;;;;7.36;100.00;94972.50;4997125;28;20192;-84
2024/01/06 08:00:00;;;;;;;2.63;2.40;;;;;;;7.97;100.00;94808.25;5006249;28;20203;-89
2024/01/06 08:02:27;;;;;;;3.00;2.17;;;;;;;7.76;92.52;94674.97;5000406;28;20309;-87
2024/01/06 08:04:59;;;;;;;2.93;2.00;;;;;;;7.54;91.37;94655.41;4994196;28;20215;-89
2024/01/06 08:07:40;;;;;;;2.60;2.00;;;;;;;7.40;91.64;94663.91;5009530;28;20218;-88
2024/01/06 08:10:08;;;;;;;4.00;1.80;;;;;;;7.23;91.17;94655.66;5009420;28;20257;-88
2024/01/06 08:18:21;;;;;;;2.10;1.70;;;;;;;7.01;91.62;94664.22;4948100;28;20234;-87
2024/01/06 08:20:54;;;;;;;2.10;1.70;;;;;;;6.92;92.42;94677.13;4992795;28;20591;-88
2024/01/06 08:26:01;;;;;;;2.23;1.60;;;;;;;6.93;93.22;94699.16;4987939;28;20211;-89
2024/01/06 08:29:02;;;;;;;4.30;1.70;;;;;;;6.88;93.12;94705.78;5001429;28;20218;-87
2024/01/06 08:31:54;;;;;;;4.07;1.83;;;;;;;6.87;91.59;94676.06;4929646;29;20205;-88
2024/01/06 08:34:20;;;;;;;2.10;1.47;;;;;;;6.87;91.85;94686.28;4918677;29;20222;-88
2024/01/06 08:37:11;;;;;;;2.70;1.57;;;;;;;6.83;92.91;94711.41;4910640;29;20340;-88
2024/01/06 08:39:38;;;;;;;3.07;1.67;;;;;;;6.83;93.13;94708.06;4926747;29;20213;-88
2024/01/06 08:42:05;;;;;;;3.17;1.63;;;;;;;6.90;92.88;94722.56;4934438;28;20301;-88
2024/01/06 08:47:48;;;;;;;2.53;1.60;;;;;;;6.93;92.68;94719.63;4985644;28;20249;-87
2024/01/06 08:50:15;;;;;;;2.80;1.80;;;;;;;6.93;92.68;94723.94;4998277;28;20242;-88
2024/01/06 08:53:08;;;;;;;2.50;1.60;;;;;;;6.92;92.18;94712.94;5002774;28;20346;-88
2024/01/06 08:55:35;;;;;;;2.77;1.60;;;;;;;6.84;92.23;94718.13;4989903;28;20207;-88
2024/01/06 08:58:39;;;;;;;2.77;1.77;;;;;;;6.89;92.91;94733.75;5004751;28;20712;-88
2024/01/06 09:18:48;;;;;;;3.30;2.50;;;;;;;6.87;93.51;94753.59;5017030;28;20846;-88
2024/01/06 09:21:46;;;;;;;4.13;2.70;;;;;;;6.88;92.04;94737.28;5026780;28;20190;-88
2024/01/06 09:30:55;;;;;;;3.53;2.60;;;;;;;6.79;92.37;94752.88;5024526;28;20233;-88
2024/01/06 09:33:52;;;;;;;2.67;1.73;;;;;;;6.84;92.72;94745.47;5017034;28;20258;-89
2024/01/06 09:36:47;;;;;;;3.43;2.17;;;;;;;6.86;92.13;94746.09;4994037;28;20202;-89
2024/01/06 09:39:46;;;;;;;3.67;2.23;;;;;;;6.81;92.84;94759.41;5014047;28;20650;-89
2024/01/06 09:49:13;;;;;;;2.80;2.23;;;;;;;6.98;92.05;94757.47;4924835;29;20229;-89
2024/01/06 09:51:55;;;;;;;3.27;2.20;;;;;;;7.03;92.56;94760.31;4923485;28;20224;-88
2024/01/06 09:57:28;;;;;;;13.80;11.10;;;;;;;7.07;91.25;94746.22;4958915;28;20878;-88
2024/01/06 10:00:24;;;;;;;5.30;4.03;;;;;;;7.05;91.32;94744.78;4965369;28;20243;-89
2024/01/06 10:06:21;;;;;;;6.13;2.60;;;;;;;7.00;90.25;94735.06;4962193;28;20240;-89
2024/01/06 10:09:22;;;;;;;3.10;2.73;;;;;;;7.00;90.64;94737.63;5014327;28;20268;-89
2024/01/06 10:12:15;;;;;;;5.07;3.20;;;;;;;7.01;90.75;94744.34;5007907;28;20233;-88
2024/01/06 10:14:42;;;;;;;9.73;6.70;;;;;;;6.98;91.63;94746.44;4991698;28;20633;-88
2024/01/06 10:17:42;;;;;;;5.83;3.77;;;;;;;7.09;98.89;94850.97;5018216;28;20206;-88
2024/01/06 10:20:30;;;;;;;5.40;3.00;;;;;;;7.15;94.28;94781.94;5026524;28;20229;-88
2024/01/06 10:23:11;;;;;;;6.20;3.37;;;;;;;7.10;93.25;94761.22;5027750;28;20265;-89
2024/01/06 10:25:57;;;;;;;5.43;2.87;;;;;;;7.09;91.85;94738.34;5027857;28;20210;-89
2024/01/06 10:28:24;;;;;;;3.53;2.53;;;;;;;7.09;90.97;94716.13;5024101;28;20230;-86
2024/01/06 10:30:53;;;;;;;3.57;2.77;;;;;;;7.10;90.46;94714.34;5020826;28;20215;-87
2024/01/06 10:33:27;;;;;;;4.90;2.60;;;;;;;7.12;90.85;94715.75;5016547;28;20313;-88
2024/01/06 10:38:45;;;;;;;4.00;2.33;;;;;;;7.06;90.46;94721.59;5023006;28;20213;-87
2024/01/06 10:41:20;;;;;;;3.43;2.83;;;;;;;7.04;90.77;94720.97;5008171;28;20203;-88
2024/01/06 10:43:48;;;;;;;3.37;2.73;;;;;;;7.03;91.29;94736.50;5008159;28;20236;-88
2024/01/06 10:46:32;;;;;;;4.03;3.03;;;;;;;7.01;91.18;94731.53;5025500;28;20209;-87
2024/01/06 10:49:00;;;;;;;5.60;2.70;;;;;;;7.05;90.77;94729.44;5026152;28;20249;-90
2024/01/06 10:51:30;;;;;;;11.80;9.30;;;;;;;7.05;90.85;94724.31;5028344;28;20297;-90
2024/01/06 10:54:13;;;;;;;21.00;15.20;;;;;;;7.03;90.33;94714.25;5028475;28;20253;-88
2024/01/06 10:57:07;;;;;;;5.30;4.13;;;;;;;7.05;89.84;94698.72;5020311;28;20195;-86
2024/01/06 10:59:34;;;;;;;7.97;3.10;;;;;;;7.03;89.69;94701.47;5009048;28;20213;-89
2024/01/06 11:02:03;;;;;;;3.77;2.97;;;;;;;7.00;89.92;94709.50;5018226;28;20704;-88
2024/01/06 11:04:29;;;;;;;4.27;3.07;;;;;;;7.01;90.21;94705.16;5026499;28;20774;-89
2024/01/06 11:07:14;;;;;;;3.47;2.53;;;;;;;6.99;90.36;94704.53;5016513;28;20206;-93
2024/01/06 11:10:06;;;;;;;4.77;3.20;;;;;;;6.99;90.54;94712.22;5027090;28;20304;-92
2024/01/06 11:12:33;;;;;;;6.40;3.33;;;;;;;6.99;90.79;94718.13;5028410;28;20210;-93
2024/01/06 11:15:27;;;;;;;6.33;3.40;;;;;;;7.00;90.10;94699.25;5024307;28;20268;-92
2024/01/06 11:17:55;;;;;;;5.63;3.27;;;;;;;7.00;90.07;94699.25;5025692;28;20297;-92
2024/01/06 11:20:51;;;;;;;5.27;3.43;;;;;;;6.98;90.16;94702.94;5021332;28;20540;-89
2024/01/06 11:23:53;;;;;;;25.67;19.40;;;;;;;7.00;90.29;94711.25;5028998;28;20222;-87
2024/01/06 11:26:40;;;;;;;8.53;6.67;;;;;;;7.04;90.78;94707.38;5005203;28;20198;-88
2024/01/06 11:29:08;;;;;;;7.63;3.83;;;;;;;7.09;90.74;94717.88;5022458;28;20276;-88
2024/01/06 11:31:35;;;;;;;4.17;3.53;;;;;;;6.99;90.74;94713.00;5017285;28;20207;-89
2024/01/06 11:34:21;;;;;;;4.73;3.50;;;;;;;7.01;90.98;94720.50;5028528;28;20218;-88
2024/01/06 11:36:49;;;;;;;3.70;3.27;;;;;;;7.03;91.45;94721.94;5030283;28;20233;-89
2024/01/06 11:39:41;;;;;;;5.70;3.40;;;;;;;7.07;91.67;94732.63;5030980;28;20572;-89
2024/01/06 11:42:10;;;;;;;5.27;3.70;;;;;;;7.04;91.28;94726.09;5021807;28;20631;-89
2024/01/06 11:45:02;;;;;;;5.57;3.37;;;;;;;7.07;91.28;94730.84;5016063;28;20594;-90
2024/01/06 11:47:30;;;;;;;5.40;3.60;;;;;;;7.09;91.29;94717.88;5031375;28;20202;-89
2024/01/06 11:52:40;;;;;;;7.13;5.00;;;;;;;7.12;91.57;94723.41;5029867;28;20244;-88
2024/01/06 11:55:09;;;;;;;15.23;12.27;;;;;;;7.07;91.99;94712.94;5019840;28;20194;-89
2024/01/06 11:57:51;;;;;;;;;;;;;;;;;;;;;
2024/01/06 12:00:18;;;;;;;7.43;4.27;;;;;;;7.07;92.51;94735.19;5020086;28;20204;-88
2024/01/06 12:02:45;;;;;;;4.73;3.97;;;;;;;7.08;92.94;94731.66;5020426;28;20222;-89
2024/01/06 12:05:15;;;;;;;5.53;3.90;;;;;;;7.06;93.39;94739.50;5021706;28;20206;-88
2024/01/06 12:07:43;;;;;;;8.40;5.00;;;;;;;6.97;94.67;94755.91;5023600;28;20207;-88
2024/01/06 12:10:21;;;;;;;5.80;3.87;;;;;;;7.01;94.75;94757.13;5020031;28;20219;-89
2024/01/06 12:12:56;;;;;;;6.20;4.23;;;;;;;7.00;94.16;94740.19;5019856;28;20226;-89
2024/01/06 12:15:22;;;;;;;7.60;4.57;;;;;;;6.96;94.77;94744.06;5020504;28;20212;-89
2024/01/06 12:18:04;;;;;;;8.43;5.27;;;;;;;6.93;94.70;94746.97;5026543;28;20210;-89
2024/01/06 12:20:33;;;;;;;6.07;4.50;;;;;;;6.96;95.07;94754.31;5029429;28;20299;-89
2024/01/06 12:23:00;;;;;;;7.40;4.57;;;;;;;7.00;94.76;94739.41;5025927;28;20230;-88
2024/01/06 12:25:46;;;;;;;5.97;4.37;;;;;;;7.03;93.73;94731.38;5017513;28;20616;-89
2024/01/06 12:28:37;;;;;;;7.43;3.93;;;;;;;7.05;92.89;94717.44;5031691;28;20549;-89
2024/01/06 12:31:05;;;;;;;5.33;4.47;;;;;;;7.05;93.94;94730.22;5030361;28;20205;-88
2024/01/06 12:33:32;;;;;;;4.50;3.90;;;;;;;6.94;94.74;94748.56;5022069;28;20732;-89
2024/01/06 12:36:14;;;;;;;;;;;;;;;;;;;;;
2024/01/06 12:38:43;;;;;;;4.73;3.83;;;;;;;7.02;94.50;94751.06;5027862;28;20198;-89
2024/01/06 12:41:11;;;;;;;5.83;4.20;;;;;;;7.08;95.16;94767.47;5030453;28;20202;-87
2024/01/06 12:43:38;;;;;;;6.43;4.30;;;;;;;7.10;94.29;94750.19;5030886;28;20224;-89
2024/01/06 12:46:22;;;;;;;5.03;4.37;;;;;;;7.05;93.55;94743.03;5029988;28;20206;-87
2024/01/06 12:48:48;;;;;;;41.30;31.93;;;;;;;7.01;93.99;94741.78;5029105;28;20218;-88
2024/01/06 12:51:15;;;;;;;14.17;10.10;;;;;;;6.98;93.58;94738.78;5029383;28;20586;-88
2024/01/06 12:53:58;;;;;;;6.80;5.17;;;;;;;6.82;93.42;94732.06;5019840;28;20699;-88
2024/01/06 12:56:31;;;;;;;5.20;4.33;;;;;;;6.89;93.68;94743.19;5029872;28;20317;-89
2024/01/06 13:01:44;;;;;;;5.30;3.83;;;;;;;6.72;96.09;94775.81;5027913;28;20233;-88
2024/01/06 13:04:10;;;;;;;5.27;3.67;;;;;;;6.64;96.63;94782.72;5030308;28;20224;-88
2024/01/06 13:06:37;;;;;;;7.40;3.53;;;;;;;6.63;94.50;94756.34;5029915;28;20194;-88
2024/01/06 13:09:06;;;;;;;7.50;3.20;;;;;;;6.63;94.36;94755.56;5013809;28;20617;-87
2024/01/06 13:11:45;;;;;;;4.97;3.33;;;;;;;6.53;93.23;94736.16;5027019;28;20610;-88
2024/01/06 13:14:12;;;;;;;5.13;3.13;;;;;;;6.44;94.66;94762.75;5029934;28;20234;-88
2024/01/06 13:17:06;;;;;;;3.87;2.73;;;;;;;6.44;95.72;94782.41;5029749;28;20214;-88
2024/01/06 13:22:31;;;;;;;4.73;3.23;;;;;;;6.42;96.24;94782.56;5019082;28;20210;-88
2024/01/06 13:24:58;;;;;;;3.70;3.00;;;;;;;6.54;95.32;94781.19;5014879;28;20206;-87
2024/01/06 13:27:41;;;;;;;36.47;28.30;;;;;;;6.52;94.84;94772.13;5025137;28;20212;-88